Terminal Aerodrome Forecast
Issued by NWS

Home | Current Version | Previous Version | Text Only | Print | Product List | Glossary On
Versions: 1 2 3 4 5 6 7 8 9 10 11 12 13 14 15 16
468
FTUS43 KEAX 181732
TAFMKC
TAF
KMKC 181732Z 1818/1918 21009KT P6SM FEW040 SCT200
     FM182200 23008KT P6SM VCTS SCT040CB SCT200
     FM190000 VRB04KT P6SM VCTS BKN040CB BKN200
      TEMPO 1900/1902 4SM TSRA OVC035CB
     FM190300 32007KT P6SM SCT200=

USA.gov is the U.S. government's official web portal to all federal, state and local government web resources and services.